TOM9X YPPH-LDDU
Flight info
| Callsign | TOM9X |
|---|---|
| Flight time | N/A |
| Altitude | 34000 |
| Route | OPEGA T12 MERIB L894 SINAM/N0497F360 L894 SAKEG/N0495F380 L894 GOLEM/N0489F400 L894 KITAL P570 MIXAM Z890 BUBAS L700 ULDUN T800 NANPA M317 IMGOD L319 RADID W3 KIXOB L223 KAPES M555 ALRAM UT888 SIV UL333 BAG UG8 TOKER UL614 PIMAV UG8 YAA UG12 GOLDO UM603 ALX DCT RUGAS DCT ENFAR DCT MOKUN |
| Aircraft | B788/H-SDE1E2E3FGHIJ2J3J4J5M1RWXY/LB1D1 |
Departure
| Time | 2026-04-29 22:28 |
|---|---|
| Airport | Perth International Airport (YPPH) |
Arrival
| Time | N/A |
|---|---|
| Airport | Dubrovnik Ruđer Bošković Airport (LDDU) |
| Time | Latitude | Longitude | Altitude | Speed | Heading |
|---|---|---|---|---|---|
| 2026-04-29 22:01 | -31.94016 | 115.97384 | 70 ft | 0 kts | 162° |
| 2026-04-29 22:13 | -31.94007 | 115.97381 | 60 ft | 3 kts | 150° |
| 2026-04-29 22:13 | -31.93989 | 115.97370 | 59 ft | 3 kts | 160° |
| 2026-04-29 22:14 | -31.93970 | 115.97362 | 61 ft | 3 kts | 160° |
| 2026-04-29 22:14 | -31.93951 | 115.97354 | 58 ft | 3 kts | 160° |
| 2026-04-29 22:14 | -31.93932 | 115.97346 | 67 ft | 3 kts | 161° |
| 2026-04-29 22:14 | -31.93919 | 115.97341 | 57 ft | 1 kts | 162° |
| 2026-04-29 22:15 | -31.93916 | 115.97340 | 57 ft | 0 kts | 162° |
| 2026-04-29 22:17 | -31.93923 | 115.97340 | 57 ft | 2 kts | 184° |
| 2026-04-29 22:17 | -31.93940 | 115.97329 | 67 ft | 4 kts | 225° |
| 2026-04-29 22:17 | -31.93947 | 115.97281 | 59 ft | 10 kts | 274° |
| 2026-04-29 22:17 | -31.93956 | 115.97200 | 59 ft | 11 kts | 268° |
| 2026-04-29 22:18 | -31.93951 | 115.97135 | 59 ft | 12 kts | 280° |
| 2026-04-29 22:18 | -31.93933 | 115.97037 | 63 ft | 11 kts | 284° |
| 2026-04-29 22:18 | -31.93918 | 115.96958 | 60 ft | 9 kts | 271° |
| 2026-04-29 22:18 | -31.93934 | 115.96896 | 63 ft | 6 kts | 233° |
| 2026-04-29 22:19 | -31.93963 | 115.96878 | 58 ft | 5 kts | 196° |
| 2026-04-29 22:19 | -31.94005 | 115.96865 | 62 ft | 8 kts | 193° |
| 2026-04-29 22:19 | -31.94072 | 115.96845 | 64 ft | 11 kts | 194° |
| 2026-04-29 22:19 | -31.94143 | 115.96824 | 60 ft | 11 kts | 194° |
| 2026-04-29 22:20 | -31.94215 | 115.96802 | 58 ft | 11 kts | 195° |
| 2026-04-29 22:20 | -31.94289 | 115.96780 | 62 ft | 11 kts | 194° |
| 2026-04-29 22:20 | -31.94356 | 115.96761 | 61 ft | 9 kts | 194° |
| 2026-04-29 22:20 | -31.94418 | 115.96743 | 61 ft | 9 kts | 194° |
| 2026-04-29 22:21 | -31.94458 | 115.96731 | 60 ft | 0 kts | 194° |
| 2026-04-29 22:21 | -31.94461 | 115.96730 | 60 ft | 3 kts | 194° |
| 2026-04-29 22:21 | -31.94510 | 115.96716 | 59 ft | 11 kts | 194° |
| 2026-04-29 22:21 | -31.94587 | 115.96694 | 55 ft | 12 kts | 193° |
| 2026-04-29 22:22 | -31.94676 | 115.96668 | 55 ft | 15 kts | 193° |
| 2026-04-29 22:22 | -31.94775 | 115.96641 | 54 ft | 15 kts | 193° |
| 2026-04-29 22:22 | -31.94874 | 115.96612 | 55 ft | 15 kts | 195° |
| 2026-04-29 22:22 | -31.94966 | 115.96583 | 57 ft | 13 kts | 194° |
| 2026-04-29 22:23 | -31.95040 | 115.96562 | 56 ft | 9 kts | 193° |
| 2026-04-29 22:23 | -31.95096 | 115.96546 | 60 ft | 7 kts | 193° |
| 2026-04-29 22:23 | -31.95141 | 115.96533 | 57 ft | 6 kts | 193° |
| 2026-04-29 22:23 | -31.95195 | 115.96517 | 62 ft | 9 kts | 194° |
| 2026-04-29 22:24 | -31.95254 | 115.96500 | 58 ft | 8 kts | 194° |
| 2026-04-29 22:24 | -31.95297 | 115.96488 | 59 ft | 5 kts | 194° |
| 2026-04-29 22:24 | -31.95321 | 115.96480 | 59 ft | 2 kts | 194° |
| 2026-04-29 22:24 | -31.95333 | 115.96477 | 62 ft | 2 kts | 194° |
| 2026-04-29 22:25 | -31.95350 | 115.96472 | 60 ft | 3 kts | 194° |
| 2026-04-29 22:25 | -31.95385 | 115.96462 | 63 ft | 9 kts | 194° |
| 2026-04-29 22:25 | -31.95475 | 115.96435 | 65 ft | 18 kts | 194° |
| 2026-04-29 22:25 | -31.95622 | 115.96393 | 65 ft | 23 kts | 194° |
| 2026-04-29 22:26 | -31.95771 | 115.96350 | 64 ft | 22 kts | 193° |
| 2026-04-29 22:26 | -31.95912 | 115.96283 | 56 ft | 21 kts | 234° |
| 2026-04-29 22:26 | -31.95900 | 115.96141 | 58 ft | 17 kts | 285° |
| 2026-04-29 22:26 | -31.95859 | 115.95985 | 59 ft | 19 kts | 309° |
| 2026-04-29 22:27 | -31.95727 | 115.96002 | 55 ft | 35 kts | 17° |
| 2026-04-29 22:27 | -31.95295 | 115.96136 | 58 ft | 94 kts | 14° |
| 2026-04-29 22:27 | -31.94475 | 115.96379 | 57 ft | 147 kts | 14° |
| 2026-04-29 22:27 | -31.93376 | 115.96712 | 325 ft | 173 kts | 18° |
| 2026-04-29 22:28 | -31.92112 | 115.97068 | 716 ft | 197 kts | 13° |
| 2026-04-29 22:28 | -31.90720 | 115.97458 | 1155 ft | 218 kts | 13° |
| 2026-04-29 22:28 | -31.89191 | 115.97902 | 1831 ft | 225 kts | 10° |
| 2026-04-29 22:28 | -31.87667 | 115.97736 | 2514 ft | 225 kts | 329° |
| 2026-04-29 22:29 | -31.86467 | 115.96599 | 3197 ft | 227 kts | 297° |
| 2026-04-29 22:29 | -31.85966 | 115.94807 | 3693 ft | 239 kts | 277° |
| 2026-04-29 22:29 | -31.85726 | 115.92804 | 4166 ft | 256 kts | 275° |
| 2026-04-29 22:29 | -31.85505 | 115.90731 | 4958 ft | 260 kts | 276° |
| 2026-04-29 22:30 | -31.85240 | 115.88615 | 5732 ft | 264 kts | 276° |
| 2026-04-29 22:30 | -31.84956 | 115.86451 | 6547 ft | 268 kts | 276° |
| 2026-04-29 22:30 | -31.84679 | 115.84278 | 7355 ft | 269 kts | 277° |
| 2026-04-29 22:30 | -31.84407 | 115.82113 | 8188 ft | 269 kts | 277° |
| 2026-04-29 22:31 | -31.84132 | 115.79936 | 9025 ft | 270 kts | 278° |
| 2026-04-29 22:31 | -31.83854 | 115.77745 | 9872 ft | 270 kts | 279° |
| 2026-04-29 22:31 | -31.83573 | 115.75546 | 10504 ft | 278 kts | 279° |
| 2026-04-29 22:31 | -31.83278 | 115.73229 | 10871 ft | 294 kts | 278° |
| 2026-04-29 22:32 | -31.82966 | 115.70776 | 11178 ft | 312 kts | 278° |
| 2026-04-29 22:32 | -31.82648 | 115.68188 | 11437 ft | 330 kts | 275° |
| 2026-04-29 22:32 | -31.82853 | 115.65436 | 11679 ft | 350 kts | 256° |
| 2026-04-29 22:32 | -31.83709 | 115.62718 | 12224 ft | 358 kts | 250° |
| 2026-04-29 22:33 | -31.84639 | 115.60000 | 12873 ft | 363 kts | 250° |
| 2026-04-29 22:33 | -31.85595 | 115.57225 | 13565 ft | 367 kts | 250° |
| 2026-04-29 22:33 | -31.86337 | 115.54360 | 14206 ft | 368 kts | 262° |
| 2026-04-29 22:33 | -31.86492 | 115.51342 | 14826 ft | 370 kts | 274° |
| 2026-04-29 22:34 | -31.86043 | 115.48344 | 15438 ft | 373 kts | 284° |
| 2026-04-29 22:34 | -31.85360 | 115.45400 | 16031 ft | 377 kts | 284° |
| 2026-04-29 22:34 | -31.84665 | 115.42413 | 16631 ft | 380 kts | 284° |
| 2026-04-29 22:34 | -31.83963 | 115.39407 | 17211 ft | 383 kts | 284° |
| 2026-04-29 22:35 | -31.83255 | 115.36372 | 17801 ft | 386 kts | 284° |
| 2026-04-29 22:35 | -31.82543 | 115.33315 | 18364 ft | 389 kts | 284° |
| 2026-04-29 22:35 | -31.81824 | 115.30236 | 18841 ft | 392 kts | 284° |
| 2026-04-29 22:35 | -31.81107 | 115.27134 | 19323 ft | 394 kts | 282° |
| 2026-04-29 22:36 | -31.80571 | 115.23976 | 19798 ft | 396 kts | 280° |
| 2026-04-29 22:36 | -31.80038 | 115.20788 | 20272 ft | 399 kts | 281° |
| 2026-04-29 22:36 | -31.79492 | 115.17590 | 20752 ft | 401 kts | 281° |
| 2026-04-29 22:36 | -31.78942 | 115.14360 | 21210 ft | 404 kts | 281° |
| 2026-04-29 22:37 | -31.78398 | 115.11147 | 21654 ft | 406 kts | 281° |
| 2026-04-29 22:37 | -31.77843 | 115.07875 | 22101 ft | 409 kts | 281° |
| 2026-04-29 22:37 | -31.77279 | 115.04563 | 22545 ft | 411 kts | 281° |
| 2026-04-29 22:37 | -31.76720 | 115.01297 | 22977 ft | 413 kts | 281° |
| 2026-04-29 22:38 | -31.76153 | 114.97974 | 23376 ft | 416 kts | 281° |
| 2026-04-29 22:38 | -31.75582 | 114.94636 | 23757 ft | 419 kts | 281° |
| 2026-04-29 22:38 | -31.75005 | 114.91269 | 24117 ft | 420 kts | 281° |
| 2026-04-29 22:38 | -31.74427 | 114.87906 | 24469 ft | 422 kts | 281° |
| 2026-04-29 22:39 | -31.73843 | 114.84518 | 24839 ft | 423 kts | 281° |
| 2026-04-29 22:39 | -31.73257 | 114.81115 | 25200 ft | 424 kts | 281° |
| 2026-04-29 22:39 | -31.72672 | 114.77725 | 25564 ft | 425 kts | 281° |
| 2026-04-29 22:39 | -31.72085 | 114.74331 | 25919 ft | 425 kts | 281° |
| 2026-04-29 22:40 | -31.71495 | 114.70926 | 26265 ft | 426 kts | 281° |
| 2026-04-29 22:40 | -31.70901 | 114.67501 | 26598 ft | 426 kts | 281° |
| 2026-04-29 22:40 | -31.70310 | 114.64102 | 26963 ft | 426 kts | 281° |
| 2026-04-29 22:40 | -31.69714 | 114.60675 | 27307 ft | 427 kts | 281° |
| 2026-04-29 22:41 | -31.69117 | 114.57250 | 27646 ft | 427 kts | 281° |
| 2026-04-29 22:41 | -31.68524 | 114.53856 | 27969 ft | 427 kts | 281° |
| 2026-04-29 22:41 | -31.67931 | 114.50465 | 28270 ft | 428 kts | 281° |
| 2026-04-29 22:41 | -31.67326 | 114.47011 | 28599 ft | 428 kts | 281° |
| 2026-04-29 22:42 | -31.66731 | 114.43621 | 28890 ft | 429 kts | 281° |
| 2026-04-29 22:42 | -31.66122 | 114.40159 | 29186 ft | 429 kts | 281° |
| 2026-04-29 22:42 | -31.65521 | 114.36748 | 29496 ft | 430 kts | 281° |
| 2026-04-29 22:42 | -31.64920 | 114.33336 | 29768 ft | 431 kts | 281° |
| 2026-04-29 22:43 | -31.64307 | 114.29868 | 30027 ft | 431 kts | 281° |
| 2026-04-29 22:43 | -31.63697 | 114.26424 | 30262 ft | 432 kts | 281° |
| 2026-04-29 22:43 | -31.63100 | 114.23054 | 30467 ft | 432 kts | 281° |
| 2026-04-29 22:43 | -31.62488 | 114.19607 | 30657 ft | 433 kts | 281° |
| 2026-04-29 22:44 | -31.61871 | 114.16137 | 30842 ft | 434 kts | 281° |
| 2026-04-29 22:44 | -31.61253 | 114.12670 | 31037 ft | 435 kts | 281° |
| 2026-04-29 22:44 | -31.60632 | 114.09185 | 31220 ft | 435 kts | 281° |
| 2026-04-29 22:44 | -31.60011 | 114.05711 | 31414 ft | 436 kts | 281° |
| 2026-04-29 22:45 | -31.59389 | 114.02236 | 31682 ft | 434 kts | 281° |
| 2026-04-29 22:45 | -31.58767 | 113.98771 | 31935 ft | 433 kts | 281° |
| 2026-04-29 22:45 | -31.58155 | 113.95361 | 32202 ft | 431 kts | 281° |
| 2026-04-29 22:45 | -31.57538 | 113.91933 | 32477 ft | 430 kts | 281° |
| 2026-04-29 22:46 | -31.56923 | 113.88520 | 32740 ft | 428 kts | 281° |
| 2026-04-29 22:46 | -31.56301 | 113.85071 | 33004 ft | 427 kts | 281° |
| 2026-04-29 22:46 | -31.55690 | 113.81694 | 33256 ft | 426 kts | 281° |
| 2026-04-29 22:46 | -31.55066 | 113.78246 | 33512 ft | 425 kts | 281° |
| 2026-04-29 22:47 | -31.54461 | 113.74911 | 33765 ft | 424 kts | 281° |
| 2026-04-29 22:47 | -31.53847 | 113.71529 | 33983 ft | 424 kts | 281° |
| 2026-04-29 22:47 | -31.53232 | 113.68148 | 34082 ft | 426 kts | 281° |
| 2026-04-29 22:48 | -31.51992 | 113.61348 | 34090 ft | 425 kts | 281° |
| 2026-04-29 22:48 | -31.50752 | 113.54566 | 34086 ft | 426 kts | 281° |
| 2026-04-29 22:49 | -31.49077 | 113.47894 | 34110 ft | 428 kts | 291° |
| 2026-04-29 22:49 | -31.46092 | 113.41846 | 34121 ft | 434 kts | 303° |
| 2026-04-29 22:50 | -31.41857 | 113.36728 | 34112 ft | 446 kts | 315° |
| 2026-04-29 22:50 | -31.36495 | 113.32894 | 34116 ft | 458 kts | 329° |
| 2026-04-29 22:51 | -31.30507 | 113.30152 | 34115 ft | 461 kts | 330° |
| 2026-04-29 22:51 | -31.21522 | 113.26111 | 34115 ft | 462 kts | 330° |
| 2026-04-29 22:52 | -31.15553 | 113.23428 | 34115 ft | 462 kts | 330° |
| 2026-04-29 22:52 | -31.09538 | 113.20733 | 34117 ft | 462 kts | 330° |
| 2026-04-29 22:53 | -31.03548 | 113.18051 | 34116 ft | 461 kts | 330° |
| 2026-04-29 22:53 | -30.97541 | 113.15364 | 34104 ft | 461 kts | 331° |
| 2026-04-29 22:54 | -30.91529 | 113.12679 | 34105 ft | 463 kts | 331° |
| 2026-04-29 22:54 | -30.85498 | 113.09992 | 34109 ft | 462 kts | 331° |
| 2026-04-29 22:55 | -30.79531 | 113.07333 | 34108 ft | 461 kts | 331° |
| 2026-04-29 22:55 | -30.73527 | 113.04663 | 34109 ft | 463 kts | 331° |
| 2026-04-29 22:56 | -30.67492 | 113.01982 | 34095 ft | 465 kts | 331° |
| 2026-04-29 22:56 | -30.61449 | 112.99304 | 34108 ft | 464 kts | 331° |
| 2026-04-29 22:57 | -30.55408 | 112.96626 | 34108 ft | 464 kts | 331° |
| 2026-04-29 22:57 | -30.49363 | 112.93953 | 34099 ft | 465 kts | 332° |
| 2026-04-29 22:58 | -30.43272 | 112.91261 | 34100 ft | 467 kts | 332° |
| 2026-04-29 22:58 | -30.37208 | 112.88588 | 34096 ft | 466 kts | 332° |
| 2026-04-29 22:59 | -30.31149 | 112.85916 | 34099 ft | 466 kts | 332° |
| 2026-04-29 22:59 | -30.25076 | 112.83246 | 34103 ft | 467 kts | 332° |
| 2026-04-29 23:00 | -30.19002 | 112.80575 | 34101 ft | 469 kts | 332° |
| 2026-04-29 23:00 | -30.12914 | 112.77901 | 34114 ft | 467 kts | 330° |
| 2026-04-29 23:01 | -30.07400 | 112.74225 | 34129 ft | 453 kts | 315° |
| 2026-04-29 23:01 | -30.03051 | 112.69122 | 34082 ft | 442 kts | 301° |
| 2026-04-29 23:02 | -30.00082 | 112.64234 | 34115 ft | 445 kts | 301° |
| 2026-04-29 23:02 | -29.96569 | 112.58430 | 34118 ft | 443 kts | 301° |
| 2026-04-29 23:03 | -29.93055 | 112.52609 | 34113 ft | 443 kts | 301° |
| 2026-04-29 23:03 | -29.89516 | 112.46773 | 34116 ft | 443 kts | 301° |
| 2026-04-29 23:04 | -29.85988 | 112.40953 | 34104 ft | 443 kts | 301° |
| 2026-04-29 23:04 | -29.82454 | 112.35136 | 34089 ft | 442 kts | 301° |
| 2026-04-29 23:05 | -29.78922 | 112.29326 | 34110 ft | 445 kts | 301° |
| 2026-04-29 23:05 | -29.75370 | 112.23498 | 34110 ft | 444 kts | 301° |
| 2026-04-29 23:06 | -29.71838 | 112.17706 | 34111 ft | 444 kts | 301° |
| 2026-04-29 23:06 | -29.68294 | 112.11905 | 34120 ft | 444 kts | 301° |
| 2026-04-29 23:07 | -29.64739 | 112.06092 | 34124 ft | 445 kts | 301° |
| 2026-04-29 23:07 | -29.61168 | 112.00264 | 34115 ft | 444 kts | 301° |
| 2026-04-29 23:08 | -29.57627 | 111.94490 | 34109 ft | 443 kts | 301° |
| 2026-04-29 23:08 | -29.54073 | 111.88706 | 34114 ft | 442 kts | 301° |
| 2026-04-29 23:09 | -29.50526 | 111.82940 | 34111 ft | 443 kts | 301° |
| 2026-04-29 23:09 | -29.46967 | 111.77160 | 34124 ft | 445 kts | 301° |
| 2026-04-29 23:10 | -29.43385 | 111.71357 | 34128 ft | 445 kts | 301° |
| 2026-04-29 23:10 | -29.39791 | 111.65538 | 34118 ft | 444 kts | 301° |
| 2026-04-29 23:11 | -29.36241 | 111.59800 | 34118 ft | 444 kts | 301° |
| 2026-04-29 23:11 | -29.32677 | 111.54047 | 34118 ft | 444 kts | 301° |
| 2026-04-29 23:12 | -29.29094 | 111.48271 | 34121 ft | 444 kts | 301° |
| 2026-04-29 23:12 | -29.25506 | 111.42495 | 34121 ft | 444 kts | 301° |
| 2026-04-29 23:13 | -29.21925 | 111.36740 | 34119 ft | 444 kts | 301° |
| 2026-04-29 23:13 | -29.18337 | 111.30979 | 34119 ft | 443 kts | 301° |
| 2026-04-29 23:14 | -29.14764 | 111.25252 | 34120 ft | 442 kts | 301° |
| 2026-04-29 23:14 | -29.11184 | 111.19521 | 34121 ft | 442 kts | 301° |
| 2026-04-29 23:15 | -29.07606 | 111.13801 | 34132 ft | 442 kts | 301° |
| 2026-04-29 23:15 | -29.04026 | 111.08086 | 34133 ft | 443 kts | 301° |
| 2026-04-29 23:16 | -29.00427 | 111.02348 | 34132 ft | 443 kts | 301° |
| 2026-04-29 23:16 | -28.96828 | 110.96619 | 34134 ft | 443 kts | 301° |
| 2026-04-29 23:17 | -28.93254 | 110.90937 | 34132 ft | 444 kts | 301° |
| 2026-04-29 23:17 | -28.89648 | 110.85211 | 34133 ft | 444 kts | 301° |
| 2026-04-29 23:18 | -28.86016 | 110.79453 | 34143 ft | 444 kts | 301° |
| 2026-04-29 23:18 | -28.82429 | 110.73773 | 34149 ft | 445 kts | 301° |
| 2026-04-29 23:19 | -28.78814 | 110.68057 | 34144 ft | 444 kts | 301° |
| 2026-04-29 23:19 | -28.75203 | 110.62355 | 34127 ft | 442 kts | 301° |
| 2026-04-29 23:20 | -28.71611 | 110.56690 | 34129 ft | 442 kts | 301° |
| 2026-04-29 23:20 | -28.68002 | 110.51006 | 34128 ft | 442 kts | 301° |
| 2026-04-29 23:21 | -28.64406 | 110.45352 | 34141 ft | 442 kts | 301° |
| 2026-04-29 23:21 | -28.60791 | 110.39673 | 34142 ft | 443 kts | 301° |
| 2026-04-29 23:22 | -28.57147 | 110.33958 | 34143 ft | 443 kts | 301° |
| 2026-04-29 23:22 | -28.53563 | 110.28344 | 34127 ft | 441 kts | 301° |
| 2026-04-29 23:23 | -28.49969 | 110.22721 | 34132 ft | 440 kts | 301° |
| 2026-04-29 23:23 | -28.46354 | 110.17073 | 34131 ft | 441 kts | 301° |
| 2026-04-29 23:24 | -28.42745 | 110.11444 | 34140 ft | 441 kts | 301° |
| 2026-04-29 23:24 | -28.39123 | 110.05799 | 34144 ft | 442 kts | 301° |
| 2026-04-29 23:25 | -28.35503 | 110.00168 | 34141 ft | 442 kts | 301° |
| 2026-04-29 23:25 | -28.31878 | 109.94534 | 34117 ft | 442 kts | 301° |
| 2026-04-29 23:26 | -28.28288 | 109.88963 | 34145 ft | 439 kts | 301° |
| 2026-04-29 23:26 | -28.24674 | 109.83360 | 34146 ft | 440 kts | 301° |
| 2026-04-29 23:27 | -28.21057 | 109.77763 | 34130 ft | 441 kts | 301° |
| 2026-04-29 23:27 | -28.17418 | 109.72137 | 34148 ft | 441 kts | 301° |
| 2026-04-29 23:28 | -28.13791 | 109.66537 | 34150 ft | 441 kts | 301° |
| 2026-04-29 23:28 | -28.10160 | 109.60939 | 34150 ft | 441 kts | 301° |
| 2026-04-29 23:29 | -28.06570 | 109.55416 | 34133 ft | 433 kts | 301° |
| 2026-04-29 23:29 | -28.02966 | 109.49864 | 34139 ft | 437 kts | 301° |
| 2026-04-29 23:30 | -27.99366 | 109.44342 | 34150 ft | 437 kts | 301° |
| 2026-04-29 23:30 | -27.95737 | 109.38771 | 34153 ft | 438 kts | 301° |
| 2026-04-29 23:31 | -27.92159 | 109.33292 | 34152 ft | 438 kts | 301° |
| 2026-04-29 23:31 | -27.88529 | 109.27736 | 34151 ft | 438 kts | 301° |
| 2026-04-29 23:32 | -27.84905 | 109.22203 | 34136 ft | 433 kts | 301° |
| 2026-04-29 23:32 | -27.81334 | 109.16747 | 34137 ft | 435 kts | 301° |
| 2026-04-29 23:33 | -27.77726 | 109.11252 | 34156 ft | 434 kts | 301° |
| 2026-04-29 23:33 | -27.74135 | 109.05783 | 34155 ft | 436 kts | 301° |
| 2026-04-29 23:34 | -27.70526 | 109.00299 | 34156 ft | 435 kts | 301° |
| 2026-04-29 23:34 | -27.66907 | 108.94801 | 34157 ft | 436 kts | 301° |
| 2026-04-29 23:35 | -27.63281 | 108.89304 | 34128 ft | 436 kts | 301° |
| 2026-04-29 23:35 | -27.59718 | 108.83912 | 34143 ft | 428 kts | 300° |
| 2026-04-29 23:36 | -27.56135 | 108.78482 | 34144 ft | 431 kts | 301° |
| 2026-04-29 23:36 | -27.52548 | 108.73069 | 34154 ft | 432 kts | 300° |
| 2026-04-29 23:37 | -27.48962 | 108.67655 | 34153 ft | 431 kts | 301° |
| 2026-04-29 23:37 | -27.45368 | 108.62239 | 34153 ft | 431 kts | 301° |
| 2026-04-29 23:38 | -27.41775 | 108.56831 | 34156 ft | 431 kts | 301° |
| 2026-04-29 23:38 | -27.38202 | 108.51460 | 34143 ft | 429 kts | 300° |
| 2026-04-29 23:39 | -27.34631 | 108.46096 | 34143 ft | 430 kts | 300° |
| 2026-04-29 23:39 | -27.31040 | 108.40711 | 34158 ft | 430 kts | 300° |
| 2026-04-29 23:40 | -27.27442 | 108.35322 | 34155 ft | 430 kts | 300° |
| 2026-04-29 23:40 | -27.23856 | 108.29957 | 34152 ft | 429 kts | 300° |
| 2026-04-29 23:41 | -27.20273 | 108.24603 | 34154 ft | 429 kts | 300° |
| 2026-04-29 23:41 | -27.16675 | 108.19232 | 34156 ft | 430 kts | 300° |
| 2026-04-29 23:42 | -27.13076 | 108.13869 | 34140 ft | 430 kts | 300° |
| 2026-04-29 23:42 | -27.09462 | 108.08487 | 34141 ft | 430 kts | 300° |
| 2026-04-29 23:43 | -27.05863 | 108.03136 | 34139 ft | 429 kts | 300° |
| 2026-04-29 23:43 | -27.02267 | 107.97793 | 34141 ft | 430 kts | 301° |
| 2026-04-29 23:44 | -26.98690 | 107.92488 | 34140 ft | 430 kts | 301° |
| 2026-04-29 23:44 | -26.95072 | 107.87126 | 34143 ft | 430 kts | 301° |
| 2026-04-29 23:45 | -26.91455 | 107.81773 | 34129 ft | 431 kts | 301° |
| 2026-04-29 23:45 | -26.87835 | 107.76423 | 34142 ft | 429 kts | 301° |
| 2026-04-29 23:46 | -26.84256 | 107.71138 | 34158 ft | 431 kts | 301° |
| 2026-04-29 23:46 | -26.80631 | 107.65794 | 34155 ft | 430 kts | 301° |
| 2026-04-29 23:47 | -26.77005 | 107.60452 | 34158 ft | 430 kts | 300° |
| 2026-04-29 23:47 | -26.73978 | 107.55999 | 34155 ft | 430 kts | 301° |
| 2026-04-29 23:48 | -26.69774 | 107.49820 | 34154 ft | 430 kts | 301° |
| 2026-04-29 23:48 | -26.66726 | 107.45347 | 34154 ft | 431 kts | 301° |
| 2026-04-29 23:49 | -26.63095 | 107.40023 | 34156 ft | 430 kts | 301° |
| 2026-04-29 23:49 | -26.59484 | 107.34735 | 34155 ft | 430 kts | 301° |
| 2026-04-29 23:50 | -26.55827 | 107.29386 | 34153 ft | 431 kts | 301° |
| 2026-04-29 23:51 | -26.50399 | 107.21457 | 34155 ft | 431 kts | 301° |
| 2026-04-29 23:51 | -26.46749 | 107.16134 | 34158 ft | 431 kts | 301° |
| 2026-04-29 23:52 | -26.43098 | 107.10815 | 34158 ft | 431 kts | 301° |
| 2026-04-29 23:52 | -26.39474 | 107.05545 | 34143 ft | 428 kts | 301° |
| 2026-04-29 23:53 | -26.35832 | 107.00246 | 34146 ft | 430 kts | 301° |
| 2026-04-29 23:53 | -26.32207 | 106.94989 | 34142 ft | 429 kts | 301° |
| 2026-04-29 23:54 | -26.28584 | 106.89732 | 34145 ft | 428 kts | 301° |
| 2026-04-29 23:54 | -26.24947 | 106.84465 | 34146 ft | 429 kts | 301° |
| 2026-04-29 23:55 | -26.21304 | 106.79195 | 34144 ft | 430 kts | 301° |
| 2026-04-29 23:55 | -26.17642 | 106.73904 | 34106 ft | 430 kts | 301° |
| 2026-04-29 23:56 | -26.14047 | 106.68719 | 34151 ft | 423 kts | 300° |
| 2026-04-29 23:56 | -26.10422 | 106.63482 | 34151 ft | 428 kts | 301° |
| 2026-04-29 23:57 | -26.06789 | 106.58260 | 34149 ft | 427 kts | 301° |
| 2026-04-29 23:57 | -26.03151 | 106.53021 | 34151 ft | 428 kts | 301° |
| 2026-04-29 23:58 | -25.99524 | 106.47814 | 34152 ft | 428 kts | 301° |
| 2026-04-29 23:58 | -25.95872 | 106.42574 | 34151 ft | 427 kts | 301° |
| 2026-04-29 23:59 | -25.92233 | 106.37359 | 34102 ft | 426 kts | 300° |
| 2026-04-29 23:59 | -25.88682 | 106.32282 | 34136 ft | 419 kts | 300° |
| 2026-04-30 00:00 | -25.85087 | 106.27133 | 34140 ft | 422 kts | 300° |
| 2026-04-30 00:00 | -25.81462 | 106.21964 | 34139 ft | 420 kts | 300° |
| 2026-04-30 00:01 | -25.77909 | 106.16890 | 34140 ft | 421 kts | 300° |
| 2026-04-30 00:01 | -25.74293 | 106.11739 | 34142 ft | 423 kts | 300° |
| 2026-04-30 00:02 | -25.70676 | 106.06590 | 34141 ft | 422 kts | 300° |
| 2026-04-30 00:02 | -25.67077 | 106.01473 | 34139 ft | 421 kts | 300° |
| 2026-04-30 00:03 | -25.66470 | 106.00612 | 34093 ft | 420 kts | 301° |